Latest Weather Observations for Derby

IDW60801

Issued at 1:32 pm WST Friday 27 February 2015 (issued every 30 minutes, with the page automatically refreshed every 10 minutes)

About weather observations | Map of weather stations | Latest weather observations for WA | Other Formats
Station Details ID: 003032 Name: DERBY AERO Lat: -17.37 Lon: 123.66 Height: 6.2 m
Data from the previous 72 hours. | See also: Recent months at Derby
Date/Time
WST
Temp
°C
App
Temp
°C
Dew
Point
Rel
Hum
%
Delta-T
°C
Wind Press
QNH
hPa
Press
MSL
hPa
Rain
since 9 am
mm
Dir
 
Spd
km/h
Gust
km/h
Spd
kts
Gust
kts
27/01:30pm 33.7 36.6 25.1 60 6.1 SSE 19 24 10 13 1004.7 1004.7 0.2
27/01:00pm 33.9 37.6 24.5 58 6.6 S 13 20 7 11 1005.3 1005.3 0.2
27/12:30pm 33.7 37.6 24.3 58 6.6 SE 11 17 6 9 1006.0 1006.0 0.2
27/12:00pm 32.2 36.4 24.8 65 5.2 ESE 11 17 6 9 1006.7 1006.7 0.2
27/11:30am 32.2 36.8 25.3 67 4.9 S 11 17 6 9 1007.3 1007.3 0.2
27/11:00am 33.1 38.6 25.6 64 5.3 ESE 7 9 4 5 1007.8 1007.8 0.2
27/10:30am 32.0 37.4 25.1 67 4.9 SSW 6 11 3 6 1008.2 1008.2 0.2
27/10:00am 30.7 35.4 25.5 74 3.7 S 11 15 6 8 1008.3 1008.3 0.2
27/09:30am 30.9 36.0 25.5 73 3.8 SSW 9 13 5 7 1008.5 1008.5 0.2
27/09:00am 30.2 35.7 25.3 75 3.5 SSW 6 11 3 6 1008.5 1008.5 0.8
27/08:30am 30.2 35.9 25.0 73 3.7 SSE 4 7 2 4 1008.4 1008.4 0.8
27/08:00am 29.8 35.4 24.9 75 3.4 E 4 9 2 5 1008.2 1008.2 0.8
27/07:30am 28.5 33.8 24.9 81 2.5 E 6 9 3 5 1007.8 1007.8 0.8
27/07:00am 26.6 31.3 25.0 91 1.1 ESE 9 13 5 7 1007.3 1007.3 0.8
27/06:30am 25.8 31.0 25.1 96 0.5 ESE 7 9 4 5 1006.9 1006.9 0.8
27/06:00am 25.2 29.8 24.7 97 0.3 SSE 9 11 5 6 1006.5 1006.5 0.8
27/05:30am 25.2 30.2 24.5 96 0.5 S 6 7 3 4 1006.2 1006.2 0.8
27/05:00am 25.1 29.7 24.2 95 0.6 SSE 7 9 4 5 1006.1 1006.1 0.8
27/04:30am 25.3 31.3 24.3 94 0.7 CALM 0 0 0 0 1005.8 1005.8 0.8
27/04:00am 25.1 30.0 24.4 96 0.5 ESE 6 7 3 4 1005.3 1005.3 0.8
27/03:30am 25.2 30.0 24.5 96 0.5 SSE 7 9 4 5 1005.4 1005.4 0.8
27/03:00am 25.3 30.2 24.6 96 0.5 SSE 7 9 4 5 1005.6 1005.6 0.8
27/02:30am 25.4 30.5 24.7 96 0.5 SSE 6 7 3 4 1005.5 1005.5 0.8
27/02:00am 25.3 30.2 24.6 96 0.5 SSE 7 9 4 5 1005.4 1005.4 0.8
27/01:30am 25.5 31.6 24.5 94 0.7 CALM 0 0 0 0 1005.2 1005.2 0.8
27/01:00am 25.5 31.1 24.3 93 0.8 ENE 2 6 1 3 1005.3 1005.3 0.8
27/12:30am 25.3 30.1 24.1 93 0.8 SSE 6 7 3 4 1005.9 1005.9 0.8
27/12:00am 25.6 30.5 24.6 94 0.7 S 7 9 4 5 1006.6 1006.6 0.8
 
Date/Time
WST
Temp
°C
App
Temp
°C
Dew
Point
Rel
Hum
%
Delta-T
°C
Wind Press
QNH
hPa
Press
MSL
hPa
Rain
since 9 am
mm
Dir
 
Spd
km/h
Gust
km/h
Spd
kts
Gust
kts
26/11:30pm 26.0 32.2 24.6 92 1.0 CALM 0 2 0 1 1007.4 1007.4 0.8
26/11:00pm 26.0 31.1 24.6 92 1.0 NNE 6 9 3 5 1008.6 1008.6 0.8
26/10:30pm 25.9 30.8 24.3 91 1.1 ESE 6 7 3 4 1008.9 1008.9 0.8
26/10:00pm 25.9 30.5 24.1 90 1.2 SE 7 11 4 6 1008.7 1008.7 0.8
26/09:30pm 26.0 30.1 24.0 89 1.4 SE 9 13 5 7 1008.8 1008.8 0.8
26/09:00pm 26.2 30.5 24.2 89 1.4 S 9 11 5 6 1008.4 1008.4 0.8
26/08:30pm 26.1 30.8 24.3 90 1.2 WSW 7 9 4 5 1007.3 1007.3 0.8
26/08:00pm 25.9 30.7 24.1 90 1.2 NNE 6 7 3 4 1006.3 1006.3 0.8
26/07:30pm 25.7 29.7 23.7 89 1.4 SSE 9 11 5 6 1006.4 1006.4 0.6
26/07:00pm 26.1 28.8 24.1 89 1.4 SE 17 22 9 12 1006.8 1006.8 0.4
26/06:30pm 26.7 29.2 24.5 88 1.5 E 19 26 10 14 1006.8 1006.8 0.2
26/06:00pm 28.2 31.6 24.0 78 2.9 NE 13 19 7 10 1005.7 1005.7 0.0
26/05:30pm 28.7 31.7 25.3 82 2.4 NNE 19 28 10 15 1005.6 1005.6 0.0
26/05:00pm 29.7 32.0 25.0 76 3.3 N 22 30 12 16 1004.4 1004.4 0.0
26/04:30pm 31.1 34.3 25.9 74 3.7 NNW 20 26 11 14 1003.8 1003.7 0.0
26/04:00pm 30.0 35.2 24.2 71 4.0 NNE 4 9 2 5 1003.7 1003.6 0.0
26/03:30pm 30.5 32.2 22.4 62 5.5 N 17 26 9 14 1003.8 1003.7 0.0
26/03:00pm 34.1 37.3 25.8 62 6.0 NNW 20 28 11 15 1003.5 1003.4 0.0
26/02:30pm 34.6 39.0 25.7 60 6.4 WNW 13 20 7 11 1003.4 1003.3 0.0
26/02:00pm 33.6 38.3 26.1 65 5.4 W 13 20 7 11 1004.2 1004.1 0.0
26/01:30pm 34.6 39.6 25.4 59 6.6 NW 9 13 5 7 1004.7 1004.7 0.0
26/01:00pm 34.1 38.6 24.6 57 6.7 NNE 9 13 5 7 1005.6 1005.6 0.0
26/12:30pm 33.6 38.9 25.3 62 5.9 NNE 7 15 4 8 1006.4 1006.4 0.0
26/12:00pm 33.1 37.4 24.3 60 6.2 N 9 13 5 7 1006.8 1006.8 0.0
26/11:30am 32.7 37.6 24.7 62 5.6 SSW 7 13 4 7 1007.3 1007.3 0.0
26/11:00am 32.7 38.1 25.2 64 5.3 SSW 6 9 3 5 1007.5 1007.5 0.0
26/10:30am 32.4 38.1 25.0 65 5.2 SE 4 7 2 4 1008.1 1008.1 0.0
26/10:00am 32.0 37.9 25.3 67 4.8 W 4 9 2 5 1008.3 1008.3 0.0
26/09:30am 31.6 37.5 25.9 72 4.1 SSW 6 11 3 6 1008.7 1008.7 0.0
26/09:00am 31.1 36.0 26.4 76 3.4 S 13 17 7 9 1008.9 1008.9 0.0
26/08:30am 30.5 35.9 26.0 77 3.2 S 9 11 5 6 1008.5 1008.5 0.0
26/08:00am 30.0 35.5 26.2 80 2.7 SSE 9 13 5 7 1008.4 1008.4 0.0
26/07:30am 29.3 36.2 25.7 81 2.5 CALM 0 6 0 3 1008.2 1008.2 0.0
26/07:00am 28.7 34.3 25.7 84 2.1 SSE 7 9 4 5 1008.0 1008.0 0.0
26/06:30am 28.2 33.5 25.8 87 1.7 SSE 9 11 5 6 1007.7 1007.7 0.0
26/06:00am 27.9 33.4 26.1 90 1.3 S 9 13 5 7 1007.5 1007.5 0.0
26/05:30am 27.9 33.5 26.3 91 1.1 S 9 13 5 7 1007.2 1007.2 0.0
26/05:00am 28.0 33.8 26.6 92 1.0 SSW 9 11 5 6 1006.9 1006.9 0.0
26/04:30am 28.1 35.0 25.7 87 1.7 CALM 0 0 0 0 1006.8 1006.8 0.0
26/04:00am 28.0 33.6 25.8 88 1.6 NNW 7 7 4 4 1006.7 1006.7 0.0
26/03:30am 28.1 33.2 25.5 86 1.8 NNW 9 13 5 7 1006.7 1006.7 0.0
26/03:00am 28.1 33.2 25.5 86 1.8 NNW 9 13 5 7 1006.7 1006.7 0.0
26/02:30am 28.2 33.3 25.6 86 1.8 NW 9 11 5 6 1006.9 1006.9 0.0
26/02:00am 28.1 33.4 25.9 88 1.6 NE 9 11 5 6 1007.1 1007.1 0.0
26/01:30am 28.0 33.3 25.8 88 1.6 NNE 9 9 5 5 1006.8 1006.8 0.0
26/01:00am 28.3 33.9 25.7 86 1.8 NE 7 9 4 5 1007.0 1007.0 0.0
26/12:30am 28.3 33.4 25.5 85 2.0 N 9 11 5 6 1007.1 1007.1 0.0
26/12:00am 28.4 32.6 25.4 84 2.1 N 13 15 7 8 1006.9 1006.9 0.0
 
Date/Time
WST
Temp
°C
App
Temp
°C
Dew
Point
Rel
Hum
%
Delta-T
°C
Wind Press
QNH
hPa
Press
MSL
hPa
Rain
since 9 am
mm
Dir
 
Spd
km/h
Gust
km/h
Spd
kts
Gust
kts
25/11:30pm 28.8 33.9 26.2 86 1.8 N 11 15 6 8 1007.4 1007.4 0.0
25/11:00pm 29.1 33.5 25.7 82 2.4 N 13 17 7 9 1007.8 1007.8 0.0
25/10:30pm 29.5 33.4 26.1 82 2.4 NNW 17 22 9 12 1007.9 1007.9 0.0
25/10:00pm 29.4 33.0 26.4 84 2.1 NNW 20 24 11 13 1008.1 1008.1 0.0
25/09:30pm 29.3 33.5 26.5 85 2.0 NNW 17 19 9 10 1008.0 1008.0 0.0
25/09:00pm 29.4 33.5 26.4 84 2.1 NNW 17 20 9 11 1008.1 1008.1 0.0
25/08:30pm 29.6 34.0 26.2 82 2.4 NNW 15 19 8 10 1007.8 1007.8 0.0
25/08:00pm 29.6 34.1 26.4 83 2.3 NNW 15 17 8 9 1007.3 1007.3 0.0
25/07:30pm 29.8 33.9 25.8 79 2.8 NNW 15 19 8 10 1007.0 1007.0 0.0
25/07:00pm 30.0 34.0 26.2 80 2.7 NNW 17 20 9 11 1006.4 1006.4 0.0
25/06:30pm 30.2 34.4 25.9 78 3.1 NNW 15 17 8 9 1006.0 1006.0 0.0
25/06:00pm 30.7 34.6 25.5 74 3.7 NNW 15 20 8 11 1005.7 1005.7 0.0
25/05:30pm 31.4 35.5 26.4 75 3.6 NNW 17 20 9 11 1005.2 1005.2 0.0
25/05:00pm 31.4 34.3 26.0 73 3.9 NW 22 28 12 15 1004.8 1004.8 0.0
25/04:30pm 32.3 34.9 26.6 72 4.1 NNW 26 32 14 17 1004.7 1004.7 0.0
25/04:00pm 32.9 36.6 25.7 66 5.1 N 17 22 9 12 1004.4 1004.4 0.0
25/03:30pm 34.3 37.6 24.5 56 6.9 NNE 15 20 8 11 1004.5 1004.5 0.0
25/03:00pm 33.8 37.3 23.5 55 7.2 NNE 11 17 6 9 1004.6 1004.6 0.0
25/02:30pm 34.2 37.9 24.5 57 6.8 NE 13 22 7 12 1004.8 1004.8 0.0
25/02:00pm 35.1 38.5 24.7 55 7.4 NNE 15 26 8 14 1005.1 1005.1 0.0
25/01:30pm 34.5 37.7 24.4 55 7.1 NE 15 20 8 11 1005.5 1005.5 0.0
25/01:00pm 33.7 37.3 24.3 58 6.6 NE 13 20 7 11 1006.1 1006.1 0.0
25/12:30pm 33.0 36.3 23.9 59 6.3 NNE 13 20 7 11 1006.7 1006.7 0.0
25/12:00pm 33.1 36.1 24.0 59 6.4 N 15 19 8 10 1007.1 1007.1 0.0
25/11:30am 32.1 34.9 23.6 60 5.9 NNE 15 24 8 13 1007.6 1007.6 0.0
25/11:00am 32.9 36.3 24.6 61 5.8 NNE 15 20 8 11 1008.1 1008.1 0.0
25/10:30am 31.6 35.3 24.5 66 5.0 NE 13 19 7 10 1008.5 1008.5 0.0
25/10:00am 31.8 36.8 25.4 69 4.5 NE 9 17 5 9 1008.9 1008.9 0.0
25/09:30am 31.3 35.3 25.6 71 4.0 E 15 20 8 11 1009.2 1009.2 0.0
25/09:00am 30.0 33.4 24.6 73 3.8 ENE 15 20 8 11 1009.3 1009.3 31.2
25/08:30am 29.7 33.7 25.0 76 3.3 ENE 13 19 7 10 1009.5 1009.5 31.2
25/08:00am 28.9 32.6 25.1 80 2.7 ENE 15 20 8 11 1009.4 1009.4 31.2
25/07:30am 28.4 32.0 25.0 82 2.4 ENE 15 19 8 10 1009.3 1009.3 31.2
25/07:00am 27.7 32.0 24.9 85 2.0 ENE 11 15 6 8 1008.8 1008.8 31.2
25/06:30am 26.6 31.7 25.0 91 1.1 ENE 7 11 4 6 1008.4 1008.4 31.2
25/06:00am 25.9 30.5 24.7 93 0.8 ENE 9 11 5 6 1008.1 1008.1 31.2
25/05:30am 25.8 30.4 24.8 94 0.7 ENE 9 11 5 6 1008.0 1008.0 31.2
25/05:00am 25.9 30.6 24.9 94 0.7 ENE 9 11 5 6 1007.9 1007.9 31.2
25/04:30am 25.8 30.4 24.8 94 0.7 ENE 9 11 5 6 1007.6 1007.6 31.2
25/04:00am 25.9 30.6 24.9 94 0.7 NE 9 11 5 6 1007.4 1007.4 31.2
25/03:30am 26.0 30.7 25.0 94 0.7 NE 9 11 5 6 1007.2 1007.2 31.2
25/03:00am 26.1 30.9 25.1 94 0.7 NE 9 13 5 7 1007.1 1007.1 31.2
25/02:30am 26.1 31.4 25.2 95 0.6 ENE 7 9 4 5 1007.3 1007.3 31.0
25/02:00am 25.9 30.6 25.0 95 0.6 ENE 9 11 5 6 1007.3 1007.3 31.0
25/01:30am 25.8 31.1 24.9 95 0.6 E 6 7 3 4 1007.6 1007.6 31.0
25/01:00am 25.9 31.0 24.9 94 0.7 ENE 7 9 4 5 1007.8 1007.8 31.0
25/12:30am 25.8 31.1 24.9 95 0.6 NE 6 7 3 4 1007.9 1007.9 31.0
25/12:00am 26.0 32.5 25.0 94 0.7 CALM 0 0 0 0 1008.1 1008.1 31.0
 
Date/Time
WST
Temp
°C
App
Temp
°C
Dew
Point
Rel
Hum
%
Delta-T
°C
Wind Press
QNH
hPa
Press
MSL
hPa
Rain
since 9 am
mm
Dir
 
Spd
km/h
Gust
km/h
Spd
kts
Gust
kts
24/11:30pm 25.9 31.2 25.0 95 0.6 ESE 6 9 3 5 1008.4 1008.4 31.0
24/11:00pm 26.0 31.4 25.1 95 0.6 ESE 6 9 3 5 1008.9 1008.9 31.0
24/10:30pm 26.1 30.9 25.1 94 0.7 NE 9 11 5 6 1008.6 1008.6 31.0
24/10:00pm 26.3 31.2 25.3 94 0.7 NE 9 11 5 6 1008.5 1008.5 31.0
24/09:30pm 26.4 31.8 25.4 94 0.7 NNE 7 9 4 5 1008.6 1008.6 31.0
24/09:00pm 26.2 31.1 25.2 94 0.7 NNE 9 9 5 5 1008.8 1008.8 31.0
24/08:30pm 26.1 31.9 25.1 94 0.7 N 4 7 2 4 1008.8 1008.8 31.0
24/08:00pm 25.9 31.3 24.5 92 1.0 NE 4 6 2 3 1008.1 1008.1 31.0
24/07:30pm 26.1 31.5 24.5 91 1.1 NNE 4 6 2 3 1007.7 1007.7 31.0
24/07:00pm 25.7 28.8 24.1 91 1.1 SE 15 17 8 9 1007.5 1007.5 31.0
24/06:30pm 25.9 28.7 24.3 91 1.1 E 17 22 9 12 1007.4 1007.4 31.0
24/06:00pm 26.4 30.5 25.2 93 0.8 NE 13 19 7 10 1007.3 1007.3 31.0
24/05:30pm 26.3 31.3 25.4 95 0.6 ENE 9 13 5 7 1006.7 1006.7 31.0
24/05:00pm 25.6 30.5 24.7 95 0.6 SE 7 9 4 5 1006.5 1006.5 30.6
24/04:30pm 25.0 28.1 24.1 95 0.6 NNE 15 19 8 10 1006.3 1006.3 29.0
24/04:00pm 25.9 29.3 24.7 93 0.8 NE 15 20 8 11 1006.5 1006.5 17.0
24/03:50pm 26.1 28.9 24.9 93 0.8 E 19 28 10 15 1006.4 1006.4 12.2
24/03:30pm 31.2 36.6 25.1 70 4.3 W 6 20 3 11 1005.8 1005.8 2.4
24/03:00pm 32.3 36.7 23.8 61 5.9 SW 7 11 4 6 1005.1 1005.1 2.4
24/02:30pm 32.0 36.2 24.1 63 5.5 SW 9 13 5 7 1005.7 1005.7 2.4
24/02:00pm 31.0 34.3 25.1 71 4.2 S 17 22 9 12 1005.8 1005.8 2.4

Other Formats:

Comma delimited format used in spreadsheet applications
http://www.bom.gov.au/fwo/IDW60801/IDW60801.95205.axf

JavaScript Object Notation format (JSON) in row-major order
http://www.bom.gov.au/fwo/IDW60801/IDW60801.95205.json